| time (UTC) | temp F | wind direction | speed knots | gust knots | rain 1hr in | rain 24hr in | rain mn in | humidity % | barometer mb |
| 20260508142543 | 59 | 285 | 2.6 | 3.5 | 0.00 | 0.00 | 0.02 | 50 | 987.8 |
| 20260508142043 | 58 | 327 | 3.5 | 4.3 | 0.00 | 0.00 | 0.02 | 50 | 987.5 |
| 20260508141548 | 59 | 352 | 1.7 | 3.5 | 0.00 | 0.00 | 0.02 | 49 | 987.8 |
| 20260508141043 | 59 | 181 | 2.6 | 4.3 | 0.00 | 0.00 | 0.02 | 50 | 987.5 |
| 20260508140543 | 58 | 293 | 2.6 | 3.5 | 0.00 | 0.00 | 0.02 | 51 | 987.5 |
| 20260508140044 | 58 | 292 | 4.3 | 6.1 | 0.00 | 0.00 | 0.02 | 50 | 987.8 |
| 20260508135543 | 57 | 343 | 5.2 | 7.0 | 0.00 | 0.00 | 0.02 | 52 | 987.5 |
| 20260508135042 | 57 | 241 | 5.2 | 7.0 | 0.00 | 0.00 | 0.02 | 52 | 987.5 |
| 20260508134543 | 58 | 332 | 2.6 | 4.3 | 0.00 | 0.00 | 0.02 | 52 | 987.5 |
| 20260508134043 | 58 | 294 | 3.5 | 4.3 | 0.00 | 0.00 | 0.02 | 49 | 987.5 |
| 20260508133543 | 58 | 5 | 0.9 | 1.7 | 0.00 | 0.00 | 0.02 | 51 | 987.5 |
| 20260508133043 | 59 | 117 | 2.6 | 3.5 | 0.00 | 0.00 | 0.02 | 51 | 987.5 |
| 20260508132542 | 58 | 294 | 1.7 | 2.6 | 0.00 | 0.00 | 0.02 | 53 | 987.5 |
| 20260508132043 | 57 | 284 | 4.3 | 6.1 | 0.00 | 0.00 | 0.02 | 52 | 987.5 |
| 20260508131545 | 57 | 276 | 3.5 | 4.3 | 0.00 | 0.00 | 0.02 | 53 | 987.5 |
| 20260508131043 | 57 | 285 | 2.6 | 3.5 | 0.00 | 0.00 | 0.02 | 54 | 987.1 |
| 20260508130543 | 57 | 305 | 2.6 | 4.3 | 0.00 | 0.00 | 0.02 | 53 | 987.5 |
| 20260508130044 | 58 | 317 | 5.2 | 6.1 | 0.00 | 0.00 | 0.02 | 53 | 987.5 |
| 20260508125543 | 58 | 267 | 4.3 | 5.2 | 0.00 | 0.00 | 0.02 | 52 | 987.5 |
| 20260508125043 | 58 | 299 | 3.5 | 5.2 | 0.00 | 0.00 | 0.02 | 50 | 987.5 |
| 20260508124543 | 58 | 323 | 4.3 | 6.1 | 0.00 | 0.00 | 0.02 | 49 | 987.1 |
| 20260508124043 | 59 | 298 | 3.5 | 6.1 | 0.00 | 0.00 | 0.02 | 51 | 987.5 |
| 20260508123545 | 58 | 335 | 5.2 | 7.8 | 0.00 | 0.00 | 0.02 | 51 | 987.5 |
| 20260508123043 | 58 | 120 | 1.7 | 3.5 | 0.00 | 0.00 | 0.02 | 53 | 987.1 |
| 20260508122543 | 58 | 281 | 1.7 | 3.5 | 0.00 | 0.00 | 0.02 | 54 | 987.5 |
| 20260508122043 | 57 | 258 | 2.6 | 4.3 | 0.00 | 0.00 | 0.02 | 54 | 987.5 |
| 20260508121542 | 57 | 315 | 6.1 | 8.7 | 0.00 | 0.00 | 0.02 | 56 | 987.5 |
| 20260508121043 | 57 | 279 | 1.7 | 1.7 | 0.00 | 0.00 | 0.02 | 56 | 987.1 |
| 20260508120543 | 58 | 356 | 2.6 | 4.3 | 0.00 | 0.00 | 0.02 | 55 | 987.1 |
| 20260508120042 | 56 | 237 | 1.7 | 1.7 | 0.00 | 0.00 | 0.02 | 57 | 987.5 |
| 20260508115542 | 56 | 320 | 3.5 | 6.1 | 0.00 | 0.00 | 0.02 | 58 | 987.1 |
| 20260508115042 | 57 | 248 | 4.3 | 5.2 | 0.00 | 0.00 | 0.02 | 55 | 987.5 |
| 20260508114545 | 57 | 241 | 1.7 | 1.7 | 0.00 | 0.00 | 0.02 | 56 | 987.1 |
| 20260508114042 | 57 | 347 | 4.3 | 6.1 | 0.00 | 0.00 | 0.02 | 54 | 987.1 |
| 20260508113543 | 57 | 323 | 4.3 | 5.2 | 0.00 | 0.00 | 0.02 | 55 | 987.1 |
| 20260508113042 | 56 | 299 | 4.3 | 6.1 | 0.00 | 0.00 | 0.02 | 58 | 986.8 |
| 20260508112542 | 57 | 204 | 2.6 | 4.3 | 0.00 | 0.00 | 0.02 | 57 | 987.1 |
| 20260508112043 | 59 | 152 | 1.7 | 3.5 | 0.00 | 0.00 | 0.02 | 50 | 986.8 |
| 20260508111545 | 58 | 292 | 2.6 | 4.3 | 0.00 | 0.00 | 0.02 | 51 | 987.1 |
| 20260508111042 | 58 | 315 | 4.3 | 6.1 | 0.00 | 0.00 | 0.02 | 51 | 986.8 |
| 20260508110542 | 57 | 281 | 3.5 | 5.2 | 0.00 | 0.00 | 0.02 | 53 | 986.8 |
| 20260508110042 | 56 | 62 | 1.7 | 1.7 | 0.00 | 0.00 | 0.02 | 53 | 986.8 |
| 20260508105542 | 56 | 315 | 7.0 | 8.7 | 0.00 | 0.00 | 0.02 | 53 | 987.1 |
| 20260508105042 | 56 | 294 | 3.5 | 5.2 | 0.00 | 0.00 | 0.02 | 54 | 986.8 |
| 20260508104543 | 56 | 330 | 3.5 | 4.3 | 0.00 | 0.00 | 0.02 | 54 | 986.8 |
| 20260508104043 | 57 | 280 | 5.2 | 8.7 | 0.00 | 0.00 | 0.02 | 52 | 986.5 |
| 20260508103544 | 57 | 265 | 2.6 | 3.5 | 0.00 | 0.00 | 0.02 | 53 | 986.8 |
| 20260508103043 | 57 | 270 | 2.6 | 4.3 | 0.00 | 0.00 | 0.02 | 53 | 986.8 |
| 20260508102542 | 56 | 61 | 1.7 | 2.6 | 0.00 | 0.00 | 0.02 | 55 | 986.8 |
| 20260508102043 | 55 | 315 | 2.6 | 4.3 | 0.00 | 0.00 | 0.02 | 55 | 986.5 |
| 20260508101542 | 54 | 289 | 6.1 | 7.8 | 0.00 | 0.00 | 0.02 | 54 | 986.8 |
| 20260508101044 | 55 | 300 | 4.3 | 6.1 | 0.00 | 0.00 | 0.02 | 56 | 986.5 |
| 20260508100543 | 55 | 316 | 0.9 | 1.7 | 0.00 | 0.00 | 0.02 | 60 | 986.8 |
| 20260508100043 | 54 | 352 | 3.5 | 5.2 | 0.00 | 0.00 | 0.02 | 60 | 986.8 |
| 20260508095544 | 55 | 356 | 3.5 | 5.2 | 0.00 | 0.00 | 0.02 | 59 | 986.5 |
| 20260508095044 | 55 | 141 | 4.3 | 7.0 | 0.00 | 0.00 | 0.02 | 59 | 986.5 |
| 20260508094543 | 54 | 292 | 2.6 | 4.3 | 0.00 | 0.00 | 0.02 | 60 | 986.5 |
| 20260508094043 | 54 | 248 | 1.7 | 4.3 | 0.00 | 0.00 | 0.02 | 60 | 986.5 |
| 20260508093543 | 55 | 346 | 2.6 | 4.3 | 0.00 | 0.00 | 0.02 | 60 | 986.1 |
| 20260508093043 | 56 | 60 | 2.6 | 4.3 | 0.00 | 0.00 | 0.02 | 60 | 986.5 |
| 20260508092542 | 55 | 240 | 2.6 | 3.5 | 0.00 | 0.00 | 0.02 | 61 | 986.5 |
| 20260508092042 | 54 | 243 | 2.6 | 5.2 | 0.00 | 0.00 | 0.02 | 63 | 986.5 |
| 20260508091542 | 54 | 179 | 4.3 | 7.8 | 0.00 | 0.00 | 0.02 | 61 | 986.1 |
| 20260508091043 | 56 | 292 | 3.5 | 6.1 | 0.00 | 0.00 | 0.02 | 60 | 986.1 |
| 20260508090543 | 56 | 283 | 2.6 | 3.5 | 0.00 | 0.00 | 0.02 | 60 | 986.1 |
| 20260508090043 | 56 | 295 | 2.6 | 4.3 | 0.00 | 0.00 | 0.02 | 61 | 986.1 |
| 20260508085545 | 55 | 283 | 2.6 | 4.3 | 0.00 | 0.00 | 0.02 | 61 | 986.1 |
| 20260508085043 | 56 | 292 | 2.6 | 6.1 | 0.00 | 0.00 | 0.02 | 64 | 986.1 |
| 20260508084542 | 55 | 323 | 4.3 | 6.1 | 0.00 | 0.00 | 0.02 | 63 | 986.1 |
| 20260508084043 | 55 | 13 | 0.9 | 1.7 | 0.00 | 0.00 | 0.02 | 66 | 986.1 |
| 20260508083542 | 54 | 177 | 1.7 | 1.7 | 0.00 | 0.00 | 0.02 | 67 | 986.1 |
| 20260508083044 | 52 | 292 | 1.7 | 4.3 | 0.00 | 0.00 | 0.02 | 69 | 986.1 |
| 20260508082543 | 52 | 207 | 3.5 | 4.3 | 0.00 | 0.00 | 0.02 | 71 | 986.1 |
| 20260508082043 | 52 | 249 | 1.7 | 2.6 | 0.00 | 0.00 | 0.02 | 72 | 986.1 |
| 20260508081542 | 52 | 69 | 1.7 | 2.6 | 0.00 | 0.00 | 0.02 | 73 | 986.1 |
| 20260508081042 | 52 | 301 | 1.7 | 2.6 | 0.00 | 0.00 | 0.02 | 74 | 986.1 |
| 20260508080543 | 53 | 50 | 0.9 | 1.7 | 0.00 | 0.00 | 0.02 | 72 | 985.8 |
| 20260508080043 | 53 | 14 | 3.5 | 4.3 | 0.00 | 0.00 | 0.02 | 73 | 985.8 |
| 20260508075543 | 52 | 302 | 2.6 | 4.3 | 0.00 | 0.00 | 0.02 | 74 | 985.8 |
| 20260508075042 | 52 | 249 | 2.6 | 3.5 | 0.00 | 0.00 | 0.02 | 74 | 985.8 |
| 20260508074544 | 52 | 240 | 3.5 | 3.5 | 0.00 | 0.00 | 0.02 | 75 | 985.8 |
| 20260508074042 | 51 | 283 | 1.7 | 2.6 | 0.00 | 0.00 | 0.02 | 77 | 985.8 |
| 20260508073543 | 51 | 131 | 1.7 | 2.6 | 0.00 | 0.00 | 0.02 | 77 | 985.8 |
| 20260508073042 | 51 | 24 | 3.5 | 6.1 | 0.00 | 0.00 | 0.02 | 77 | 985.4 |
| 20260508072548 | 51 | 265 | 0.9 | 1.7 | 0.00 | 0.00 | 0.02 | 78 | 985.4 |
| 20260508072042 | 51 | 270 | 1.7 | 1.7 | 0.00 | 0.00 | 0.02 | 79 | 985.4 |
| 20260508071544 | 50 | 300 | 1.7 | 1.7 | 0.00 | 0.00 | 0.02 | 81 | 985.4 |
| 20260508071042 | 50 | 281 | 1.7 | 2.6 | 0.00 | 0.00 | 0.02 | 81 | 985.4 |
| 20260508070542 | 50 | 344 | 0.9 | 1.7 | 0.00 | 0.00 | 0.02 | 82 | 985.4 |
| 20260508070043 | 50 | 292 | 1.7 | 1.7 | 0.00 | 0.00 | 0.02 | 83 | 985.1 |
| 20260508065542 | 50 | 20 | 2.6 | 3.5 | 0.00 | 0.00 | 0.02 | 84 | 984.8 |
| 20260508065043 | 50 | 267 | 2.6 | 3.5 | 0.00 | 0.00 | 0.02 | 84 | 985.1 |
| 20260508064542 | 50 | 105 | 0.9 | 0.9 | 0.00 | 0.00 | 0.02 | 84 | 984.8 |
| 20260508064042 | 49 | 226 | 1.7 | 2.6 | 0.00 | 0.00 | 0.02 | 85 | 984.8 |
| 20260508063542 | 49 | 228 | 1.7 | 1.7 | 0.00 | 0.00 | 0.02 | 85 | 984.8 |
| 20260508063042 | 49 | 103 | 0.9 | 1.7 | 0.00 | 0.00 | 0.02 | 86 | 984.8 |
| 20260508062544 | 49 | 278 | 0.9 | 1.7 | 0.00 | 0.00 | 0.02 | 86 | 984.8 |
| 20260508062043 | 49 | 270 | 0.9 | 1.7 | 0.00 | 0.00 | 0.02 | 86 | 984.8 |
| 20260508061542 | 49 | 328 | 0.9 | 1.7 | 0.00 | 0.00 | 0.02 | 87 | 984.4 |
| 20260508061042 | 49 | 182 | 0.9 | 1.7 | 0.00 | 0.00 | 0.02 | 88 | 984.8 |
| 20260508060542 | 49 | 242 | 0.9 | 1.7 | 0.00 | 0.00 | 0.02 | 89 | 984.8 |
| 20260508060044 | 49 | 210 | 1.7 | 2.6 | 0.00 | 0.00 | 0.02 | 90 | 984.8 |
| 20260508055543 | 49 | 138 | 0.0 | 1.7 | 0.00 | 0.00 | 0.02 | 91 | 984.4 |
| 20260508055042 | 49 | 123 | 0.0 | 0.9 | 0.00 | 0.00 | 0.02 | 91 | 984.1 |
| 20260508054542 | 49 | 26 | 0.0 | 0.0 | 0.00 | 0.00 | 0.02 | 91 | 984.4 |
| 20260508054043 | 48 | 137 | 0.9 | 1.7 | 0.00 | 0.00 | 0.02 | 91 | 984.1 |
| 20260508053543 | 48 | 306 | 0.0 | 0.0 | 0.00 | 0.00 | 0.02 | 91 | 984.1 |
| 20260508053043 | 48 | 304 | 0.9 | 0.9 | 0.00 | 0.00 | 0.02 | 91 | 984.4 |
| 20260508052543 | 48 | 330 | 0.9 | 1.7 | 0.00 | 0.00 | 0.02 | 91 | 984.1 |
| 20260508052045 | 48 | 279 | 1.7 | 2.6 | 0.00 | 0.00 | 0.02 | 91 | 984.1 |
| 20260508051543 | 48 | 349 | 1.7 | 2.6 | 0.00 | 0.00 | 0.02 | 92 | 984.1 |
| 20260508051043 | 48 | 349 | 0.9 | 1.7 | 0.00 | 0.00 | 0.02 | 92 | 984.1 |
| 20260508050543 | 48 | 296 | 0.9 | 1.7 | 0.00 | 0.00 | 0.02 | 92 | 983.7 |
| 20260508050043 | 49 | 289 | 1.7 | 1.7 | 0.00 | 0.00 | 0.02 | 91 | 983.7 |
| 20260508045542 | 48 | 339 | 0.0 | 0.0 | 0.00 | 0.00 | 0.02 | 91 | 983.7 |
| 20260508045042 | 48 | 73 | 0.0 | 0.9 | 0.00 | 0.00 | 0.02 | 91 | 983.7 |
| 20260508044542 | 48 | 237 | 1.7 | 2.6 | 0.00 | 0.00 | 0.02 | 91 | 983.7 |
| 20260508044043 | 48 | 238 | 0.0 | 0.9 | 0.00 | 0.00 | 0.02 | 91 | 983.7 |
| 20260508043542 | 48 | 160 | 0.9 | 1.7 | 0.00 | 0.00 | 0.02 | 91 | 983.7 |
| 20260508043046 | 48 | 74 | 0.0 | 0.0 | 0.00 | 0.00 | 0.02 | 91 | 983.7 |
| 20260508042542 | 48 | 41 | 0.0 | 0.0 | 0.00 | 0.00 | 0.02 | 91 | 983.7 |
| 20260508042043 | 48 | 60 | 0.0 | 0.0 | 0.00 | 0.00 | 0.02 | 91 | 983.7 |
| 20260508041544 | 48 | 4 | 0.0 | 0.0 | 0.00 | 0.00 | 0.02 | 91 | 983.4 |
| 20260508041042 | 48 | 353 | 0.0 | 0.9 | 0.00 | 0.00 | 0.02 | 91 | 983.4 |
| 20260508040542 | 48 | 49 | 0.0 | 0.0 | 0.00 | 0.00 | 0.02 | 91 | 983.7 |
| 20260508040043 | 48 | 8 | 0.0 | 0.9 | 0.00 | 0.00 | 0.02 | 90 | 983.4 |
| 20260508035542 | 48 | 1 | 0.0 | 0.0 | 0.00 | 0.00 | 0.02 | 90 | 983.7 |
| 20260508035043 | 48 | 330 | 0.0 | 0.9 | 0.00 | 0.00 | 0.02 | 90 | 983.4 |
| 20260508034542 | 48 | 332 | 0.9 | 1.7 | 0.00 | 0.00 | 0.02 | 89 | 983.4 |
| 20260508034042 | 49 | 319 | 0.9 | 1.7 | 0.00 | 0.00 | 0.02 | 89 | 983.4 |
| 20260508033542 | 49 | 76 | 0.0 | 0.9 | 0.00 | 0.00 | 0.02 | 89 | 983.1 |
| 20260508033042 | 49 | 267 | 0.9 | 1.7 | 0.00 | 0.00 | 0.02 | 88 | 983.4 |
| 20260508032543 | 49 | 221 | 0.9 | 1.7 | 0.00 | 0.00 | 0.02 | 88 | 983.4 |
| 20260508032043 | 49 | 15 | 0.0 | 0.9 | 0.00 | 0.00 | 0.02 | 88 | 983.4 |
| 20260508031542 | 49 | 307 | 1.7 | 1.7 | 0.00 | 0.00 | 0.02 | 88 | 983.1 |
| 20260508031043 | 49 | 300 | 0.9 | 1.7 | 0.00 | 0.00 | 0.02 | 87 | 983.4 |
| 20260508030543 | 49 | 118 | 0.0 | 0.9 | 0.00 | 0.00 | 0.02 | 87 | 983.1 |
| 20260508030043 | 49 | 293 | 1.7 | 1.7 | 0.00 | 0.00 | 0.02 | 87 | 983.1 |
| 20260508025542 | 49 | 168 | 2.6 | 3.5 | 0.00 | 0.00 | 0.02 | 87 | 983.1 |
| 20260508025042 | 49 | 213 | 1.7 | 1.7 | 0.00 | 0.00 | 0.02 | 86 | 983.1 |
| 20260508024543 | 49 | 145 | 1.7 | 2.6 | 0.00 | 0.00 | 0.02 | 86 | 983.1 |
| 20260508024043 | 49 | 176 | 0.9 | 2.6 | 0.00 | 0.00 | 0.02 | 86 | 983.1 |
| 20260508023543 | 49 | 163 | 1.7 | 2.6 | 0.00 | 0.00 | 0.02 | 86 | 983.1 |
| 20260508023042 | 49 | 280 | 0.9 | 1.7 | 0.00 | 0.00 | 0.02 | 86 | 983.1 |
| 20260508022542 | 49 | 171 | 0.9 | 1.7 | 0.00 | 0.00 | 0.02 | 86 | 983.1 |
| 20260508022042 | 49 | 197 | 2.6 | 3.5 | 0.00 | 0.00 | 0.02 | 86 | 983.1 |
| 20260508021544 | 49 | 137 | 0.9 | 1.7 | 0.00 | 0.00 | 0.02 | 86 | 983.1 |
| 20260508021043 | 49 | 81 | 0.9 | 1.7 | 0.00 | 0.00 | 0.02 | 86 | 983.1 |
| 20260508020543 | 48 | 283 | 2.6 | 2.6 | 0.00 | 0.00 | 0.02 | 86 | 982.7 |
| 20260508020042 | 48 | 283 | 0.0 | 0.9 | 0.00 | 0.00 | 0.02 | 86 | 983.1 |
| 20260508015542 | 48 | 112 | 0.0 | 0.9 | 0.00 | 0.00 | 0.02 | 86 | 983.1 |
| 20260508015042 | 48 | 251 | 1.7 | 1.7 | 0.00 | 0.00 | 0.02 | 86 | 983.1 |
| 20260508014542 | 48 | 98 | 0.0 | 0.9 | 0.01 | 0.00 | 0.02 | 86 | 983.1 |
| 20260508014043 | 48 | 74 | 0.0 | 0.0 | 0.01 | 0.00 | 0.02 | 86 | 983.1 |
| 20260508013543 | 48 | 270 | 0.9 | 1.7 | 0.01 | 0.00 | 0.02 | 86 | 983.1 |
| 20260508013043 | 48 | 240 | 2.6 | 4.3 | 0.01 | 0.00 | 0.02 | 86 | 983.1 |
| 20260508012542 | 48 | 179 | 1.7 | 3.5 | 0.01 | 0.00 | 0.02 | 86 | 983.1 |
| 20260508012043 | 48 | 198 | 0.0 | 0.9 | 0.01 | 0.00 | 0.02 | 86 | 983.1 |
| 20260508011544 | 48 | 298 | 0.9 | 1.7 | 0.01 | 0.00 | 0.02 | 86 | 983.1 |
| 20260508011043 | 48 | 264 | 0.9 | 1.7 | 0.01 | 0.00 | 0.02 | 86 | 982.7 |
| 20260508010543 | 48 | 265 | 0.0 | 0.9 | 0.01 | 0.00 | 0.02 | 87 | 983.1 |
| 20260508010042 | 48 | 85 | 0.0 | 0.9 | 0.01 | 0.00 | 0.02 | 86 | 983.1 |
| 20260508005543 | 48 | 259 | 0.9 | 1.7 | 0.01 | 0.00 | 0.02 | 86 | 982.7 |
| 20260508005042 | 48 | 91 | 1.7 | 1.7 | 0.01 | 0.00 | 0.02 | 86 | 983.1 |
| 20260508004543 | 48 | 326 | 0.0 | 0.9 | 0.01 | 0.00 | 0.02 | 86 | 983.1 |
| 20260508004043 | 48 | 161 | 0.9 | 1.7 | 0.00 | 0.00 | 0.02 | 85 | 983.1 |
| 20260508003543 | 49 | 345 | 0.0 | 0.0 | 0.00 | 0.00 | 0.02 | 84 | 983.1 |
| 20260508003043 | 49 | 253 | 1.7 | 2.6 | 0.00 | 0.00 | 0.01 | 83 | 983.1 |
| 20260508002542 | 49 | 214 | 0.9 | 1.7 | 0.00 | 0.00 | 0.00 | 82 | 983.1 |
| 20260508002042 | 49 | 290 | 0.0 | 0.9 | 0.00 | 0.00 | 0.00 | 81 | 983.1 |
| 20260508001542 | 49 | 133 | 0.0 | 0.9 | 0.00 | 0.00 | 0.00 | 80 | 983.1 |
| 20260508001042 | 50 | 86 | 0.9 | 1.7 | 0.00 | 0.00 | 0.00 | 79 | 983.1 |
| 20260508000542 | 50 | 266 | 0.9 | 1.7 | 0.00 | 0.00 | 0.00 | 78 | 983.1 |
| 20260508000043 | 50 | 270 | 0.9 | 1.7 | 0.00 | 0.00 | 0.00 | 75 | 983.1 |
| 20260507235543 | 50 | 279 | 1.7 | 2.6 | 0.00 | 0.00 | 0.00 | 75 | 983.1 |
| 20260507235042 | 50 | 162 | 1.7 | 1.7 | 0.00 | 0.00 | 0.00 | 75 | 982.7 |
| 20260507234542 | 50 | 212 | 1.7 | 2.6 | 0.00 | 0.00 | 0.00 | 75 | 982.7 |
| 20260507234042 | 50 | 106 | 1.7 | 1.7 | 0.00 | 0.00 | 0.00 | 75 | 983.1 |
| 20260507233543 | 50 | 106 | 0.0 | 0.9 | 0.00 | 0.00 | 0.00 | 75 | 983.1 |
| 20260507233044 | 50 | 71 | 0.0 | 0.9 | 0.00 | 0.00 | 0.00 | 76 | 982.7 |
| 20260507232542 | 50 | 170 | 0.0 | 0.9 | 0.00 | 0.00 | 0.00 | 76 | 982.7 |
| 20260507232043 | 50 | 155 | 0.0 | 0.9 | 0.00 | 0.00 | 0.00 | 75 | 983.1 |
| 20260507231543 | 50 | 198 | 0.9 | 1.7 | 0.00 | 0.00 | 0.00 | 75 | 983.1 |
| 20260507231042 | 50 | 185 | 1.7 | 2.6 | 0.00 | 0.00 | 0.00 | 75 | 982.7 |
| 20260507230542 | 50 | 188 | 0.0 | 0.9 | 0.00 | 0.00 | 0.00 | 76 | 982.7 |
| 20260507230043 | 50 | 195 | 0.0 | 0.9 | 0.00 | 0.00 | 0.13 | 76 | 983.1 |
| 20260507225542 | 50 | 213 | 0.9 | 1.7 | 0.00 | 0.00 | 0.13 | 76 | 983.1 |
| 20260507225042 | 50 | 177 | 0.0 | 0.0 | 0.00 | 0.00 | 0.13 | 76 | 983.1 |
| 20260507224543 | 50 | 308 | 0.9 | 1.7 | 0.00 | 0.00 | 0.13 | 75 | 982.7 |
| 20260507224043 | 50 | 163 | 0.0 | 0.9 | 0.00 | 0.00 | 0.13 | 76 | 982.7 |
| 20260507223544 | 50 | 237 | 1.7 | 1.7 | 0.00 | 0.00 | 0.13 | 76 | 983.1 |
| 20260507223042 | 50 | 131 | 3.5 | 4.3 | 0.00 | 0.00 | 0.13 | 76 | 982.7 |
| 20260507222543 | 50 | 242 | 0.9 | 1.7 | 0.00 | 0.00 | 0.13 | 77 | 982.7 |
| 20260507222042 | 50 | 101 | 0.9 | 1.7 | 0.00 | 0.00 | 0.13 | 77 | 982.7 |
| 20260507221542 | 50 | 206 | 1.7 | 1.7 | 0.00 | 0.00 | 0.13 | 77 | 983.1 |
| 20260507221042 | 50 | 186 | 0.9 | 1.7 | 0.00 | 0.00 | 0.13 | 77 | 982.7 |
| 20260507220543 | 50 | 213 | 0.0 | 0.9 | 0.00 | 0.00 | 0.13 | 77 | 982.7 |
| 20260507220043 | 50 | 103 | 0.0 | 0.0 | 0.00 | 0.00 | 0.13 | 77 | 982.7 |
| 20260507215543 | 50 | 216 | 0.9 | 1.7 | 0.00 | 0.00 | 0.13 | 77 | 982.7 |
| 20260507215043 | 50 | 293 | 0.0 | 0.9 | 0.00 | 0.00 | 0.13 | 77 | 982.7 |
| 20260507214542 | 50 | 150 | 0.9 | 4.3 | 0.00 | 0.00 | 0.13 | 77 | 982.7 |
| 20260507214042 | 50 | 33 | 0.0 | 0.9 | 0.00 | 0.00 | 0.13 | 76 | 982.4 |
| 20260507213542 | 50 | 162 | 2.6 | 4.3 | 0.00 | 0.00 | 0.13 | 76 | 982.7 |
| 20260507213043 | 50 | 188 | 0.9 | 1.7 | 0.00 | 0.00 | 0.13 | 76 | 982.7 |
| 20260507212544 | 50 | 206 | 0.9 | 1.7 | 0.00 | 0.00 | 0.13 | 76 | 982.4 |
| 20260507212042 | 50 | 166 | 1.7 | 1.7 | 0.00 | 0.00 | 0.13 | 76 | 982.7 |
| 20260507211543 | 51 | 163 | 1.7 | 2.6 | 0.00 | 0.00 | 0.13 | 76 | 982.7 |
| 20260507211043 | 51 | 157 | 3.5 | 4.3 | 0.00 | 0.00 | 0.13 | 76 | 982.7 |
| 20260507210543 | 51 | 212 | 3.5 | 8.7 | 0.00 | 0.00 | 0.13 | 75 | 982.4 |
| 20260507210043 | 51 | 154 | 2.6 | 3.5 | 0.00 | 0.00 | 0.13 | 75 | 982.4 |
| 20260507205542 | 51 | 146 | 1.7 | 2.6 | 0.00 | 0.00 | 0.13 | 75 | 982.4 |
| 20260507205043 | 51 | 212 | 2.6 | 5.2 | 0.00 | 0.00 | 0.13 | 75 | 982.7 |
| 20260507204543 | 52 | 191 | 2.6 | 4.3 | 0.00 | 0.00 | 0.13 | 74 | 982.7 |
| 20260507203543 | 52 | 195 | 2.6 | 3.5 | 0.00 | 0.00 | 0.13 | 72 | 982.4 |
| 20260507203043 | 52 | 215 | 0.9 | 1.7 | 0.00 | 0.00 | 0.13 | 72 | 982.4 |
| 20260507202543 | 52 | 214 | 1.7 | 1.7 | 0.00 | 0.00 | 0.13 | 71 | 982.7 |
| 20260507202043 | 52 | 231 | 0.0 | 0.9 | 0.00 | 0.00 | 0.13 | 71 | 982.4 |
| 20260507201542 | 52 | 125 | 1.7 | 2.6 | 0.00 | 0.00 | 0.13 | 70 | 982.4 |
| 20260507201043 | 52 | 245 | 2.6 | 3.5 | 0.00 | 0.00 | 0.13 | 70 | 982.4 |
| 20260507200543 | 53 | 257 | 3.5 | 5.2 | 0.00 | 0.00 | 0.13 | 69 | 982.4 |
| 20260507200043 | 53 | 172 | 4.3 | 5.2 | 0.00 | 0.00 | 0.13 | 69 | 982.4 |
| 20260507195543 | 53 | 216 | 2.6 | 3.5 | 0.00 | 0.00 | 0.13 | 68 | 982.1 |
| 20260507195043 | 53 | 240 | 1.7 | 2.6 | 0.00 | 0.00 | 0.13 | 68 | 982.4 |
| 20260507194543 | 53 | 218 | 6.1 | 8.7 | 0.00 | 0.00 | 0.13 | 68 | 982.1 |
| 20260507194043 | 53 | 97 | 3.5 | 7.0 | 0.00 | 0.00 | 0.13 | 68 | 982.1 |
| 20260507193542 | 53 | 135 | 1.7 | 2.6 | 0.00 | 0.00 | 0.13 | 68 | 982.1 |
| 20260507192043 | 53 | 175 | 1.7 | 2.6 | 0.00 | 0.00 | 0.13 | 67 | 982.1 |
| 20260507191543 | 54 | 255 | 1.7 | 1.7 | 0.00 | 0.00 | 0.13 | 66 | 982.1 |
| 20260507190542 | 54 | 248 | 3.5 | 6.1 | 0.00 | 0.00 | 0.13 | 65 | 982.1 |
| 20260507190043 | 54 | 352 | 1.7 | 2.6 | 0.00 | 0.00 | 0.13 | 64 | 982.1 |
| 20260507185542 | 54 | 146 | 1.7 | 2.6 | 0.00 | 0.00 | 0.13 | 63 | 982.1 |
| 20260507185043 | 54 | 120 | 4.3 | 6.1 | 0.00 | 0.00 | 0.13 | 62 | 982.1 |
| 20260507184043 | 54 | 208 | 2.6 | 4.3 | 0.00 | 0.00 | 0.13 | 60 | 982.1 |
| 20260507183542 | 54 | 223 | 1.7 | 2.6 | 0.00 | 0.00 | 0.13 | 60 | 982.1 |
| 20260507183042 | 54 | 204 | 2.6 | 3.5 | 0.00 | 0.00 | 0.13 | 59 | 982.1 |
| 20260507182042 | 54 | 281 | 3.5 | 4.3 | 0.00 | 0.00 | 0.13 | 57 | 982.1 |
| 20260507181543 | 54 | 168 | 0.9 | 1.7 | 0.00 | 0.00 | 0.13 | 56 | 982.1 |
| 20260507181045 | 54 | 266 | 1.7 | 3.5 | 0.00 | 0.00 | 0.13 | 56 | 982.1 |
| 20260507180543 | 54 | 144 | 3.5 | 4.3 | 0.00 | 0.00 | 0.13 | 55 | 981.7 |
| 20260507180043 | 54 | 272 | 2.6 | 4.3 | 0.00 | 0.00 | 0.13 | 54 | 982.1 |
| 20260507175543 | 54 | 210 | 2.6 | 4.3 | 0.00 | 0.00 | 0.13 | 53 | 981.7 |
| 20260507175043 | 54 | 157 | 2.6 | 4.3 | 0.00 | 0.00 | 0.13 | 52 | 981.7 |
| 20260507174543 | 55 | 160 | 2.6 | 5.2 | 0.00 | 0.00 | 0.13 | 52 | 981.7 |
| 20260507174043 | 55 | 263 | 4.3 | 5.2 | 0.00 | 0.00 | 0.13 | 53 | 982.1 |
| 20260507173544 | 55 | 183 | 1.7 | 4.3 | 0.00 | 0.00 | 0.13 | 53 | 982.1 |
| 20260507173043 | 55 | 113 | 4.3 | 8.7 | 0.00 | 0.00 | 0.13 | 53 | 982.1 |
| 20260507172543 | 55 | 103 | 2.6 | 3.5 | 0.00 | 0.00 | 0.13 | 53 | 982.1 |
| 20260507172042 | 55 | 163 | 4.3 | 6.1 | 0.00 | 0.00 | 0.13 | 53 | 982.1 |
| 20260507171542 | 55 | 176 | 4.3 | 7.8 | 0.00 | 0.00 | 0.13 | 54 | 981.7 |
| 20260507171043 | 55 | 245 | 2.6 | 4.3 | 0.00 | 0.00 | 0.13 | 53 | 982.1 |
| 20260507170543 | 56 | 152 | 1.7 | 3.5 | 0.00 | 0.00 | 0.13 | 53 | 981.7 |
| 20260507170042 | 56 | 119 | 3.5 | 7.8 | 0.00 | 0.00 | 0.13 | 52 | 982.1 |
| 20260507165543 | 56 | 240 | 1.7 | 2.6 | 0.00 | 0.00 | 0.13 | 53 | 982.1 |
| 20260507165043 | 56 | 207 | 5.2 | 7.8 | 0.00 | 0.00 | 0.13 | 53 | 982.1 |
| 20260507164543 | 56 | 171 | 4.3 | 6.1 | 0.00 | 0.00 | 0.13 | 52 | 981.7 |
| 20260507164043 | 56 | 311 | 3.5 | 5.2 | 0.00 | 0.00 | 0.13 | 52 | 981.7 |
| 20260507163543 | 56 | 116 | 1.7 | 4.3 | 0.00 | 0.00 | 0.13 | 54 | 982.1 |
| 20260507163043 | 56 | 153 | 3.5 | 7.8 | 0.00 | 0.00 | 0.13 | 55 | 981.7 |
| 20260507162543 | 56 | 70 | 2.6 | 4.3 | 0.00 | 0.00 | 0.13 | 56 | 981.7 |
| 20260507162043 | 56 | 109 | 3.5 | 5.2 | 0.00 | 0.00 | 0.13 | 55 | 981.7 |
| 20260507161543 | 56 | 221 | 4.3 | 8.7 | 0.00 | 0.00 | 0.13 | 56 | 981.7 |
| 20260507161043 | 56 | 172 | 2.6 | 2.6 | 0.00 | 0.00 | 0.13 | 59 | 982.1 |
| 20260507160544 | 56 | 213 | 3.5 | 5.2 | 0.00 | 0.00 | 0.13 | 59 | 981.7 |
| 20260507160042 | 56 | 270 | 7.0 | 8.7 | 0.00 | 0.00 | 0.13 | 60 | 981.7 |
| 20260507155542 | 56 | 271 | 2.6 | 6.1 | 0.00 | 0.00 | 0.13 | 64 | 982.1 |
| 20260507155043 | 56 | 177 | 3.5 | 6.1 | 0.00 | 0.00 | 0.13 | 66 | 981.7 |
| 20260507154543 | 56 | 261 | 4.3 | 7.0 | 0.00 | 0.00 | 0.13 | 66 | 982.1 |
| 20260507154043 | 56 | 210 | 1.7 | 2.6 | 0.00 | 0.00 | 0.13 | 67 | 982.1 |
| 20260507153543 | 57 | 175 | 4.3 | 8.7 | 0.00 | 0.00 | 0.13 | 65 | 982.1 |
| 20260507153043 | 58 | 257 | 3.5 | 5.2 | 0.00 | 0.00 | 0.13 | 66 | 982.1 |
| 20260507152543 | 58 | 228 | 4.3 | 6.1 | 0.00 | 0.00 | 0.13 | 66 | 982.1 |
| 20260507152043 | 58 | 243 | 4.3 | 6.1 | 0.00 | 0.00 | 0.13 | 65 | 982.1 |
| 20260507151543 | 56 | 267 | 3.5 | 4.3 | 0.00 | 0.00 | 0.13 | 69 | 982.1 |
| 20260507151043 | 56 | 171 | 2.6 | 3.5 | 0.00 | 0.00 | 0.13 | 69 | 982.1 |
| 20260507150544 | 54 | 231 | 6.1 | 7.8 | 0.00 | 0.00 | 0.13 | 72 | 982.1 |
| 20260507150043 | 54 | 121 | 2.6 | 4.3 | 0.00 | 0.00 | 0.13 | 77 | 982.1 |
| 20260507145542 | 54 | 312 | 0.9 | 1.7 | 0.00 | 0.00 | 0.13 | 77 | 982.4 |
| 20260507145045 | 54 | 248 | 2.6 | 5.2 | 0.01 | 0.00 | 0.13 | 77 | 982.4 |
| 20260507144544 | 54 | 332 | 5.2 | 7.0 | 0.01 | 0.00 | 0.13 | 77 | 982.4 |
| 20260507144043 | 55 | 181 | 0.9 | 1.7 | 0.01 | 0.00 | 0.13 | 78 | 982.1 |
| 20260507143542 | 55 | 235 | 1.7 | 3.5 | 0.02 | 0.00 | 0.13 | 78 | 982.1 |